createdAt,value
2019-05-22T00:00:04.184Z,100789.54
2019-05-22T00:02:35.400Z,100785.39
2019-05-22T00:05:15.189Z,100790.36
2019-05-22T00:07:47.166Z,100786.77
2019-05-22T00:10:23.024Z,100788.84
2019-05-22T00:12:54.510Z,100789.41
2019-05-22T00:15:24.848Z,100792.53
2019-05-22T00:17:54.999Z,100786.31
2019-05-22T00:20:27.261Z,100789.08
2019-05-22T00:22:57.608Z,100796.00
2019-05-22T00:25:28.996Z,100801.06
2019-05-22T00:28:00.533Z,100798.07
2019-05-22T00:30:33.124Z,100802.55
2019-05-22T00:33:02.807Z,100797.02
2019-05-22T00:35:34.399Z,100801.98
2019-05-22T00:38:06.860Z,100795.86
2019-05-22T00:40:55.033Z,100797.25
2019-05-22T00:43:41.486Z,100799.69
2019-05-22T00:46:13.359Z,100806.83
2019-05-22T00:48:44.836Z,100807.63
2019-05-22T00:51:16.081Z,100806.83
2019-05-22T00:53:54.103Z,100806.83
2019-05-22T00:56:27.746Z,100799.22
2019-05-22T00:59:16.427Z,100801.76
2019-05-22T01:01:48.128Z,100804.62
2019-05-22T01:04:22.317Z,100803.70
2019-05-22T01:06:54.162Z,100805.21
2019-05-22T01:09:43.707Z,100811.66
2019-05-22T01:12:27.253Z,100815.35
2019-05-22T01:15:01.137Z,100823.65
2019-05-22T01:17:34.415Z,100825.95
2019-05-22T01:20:05.047Z,100823.52
2019-05-22T01:22:36.154Z,100824.34
2019-05-22T01:25:09.275Z,100821.57
2019-05-22T01:27:41.660Z,100829.52
2019-05-22T01:30:29.067Z,100828.12
2019-05-22T01:33:01.671Z,100824.80
2019-05-22T01:35:34.208Z,100820.66
2019-05-22T01:38:04.312Z,100833.56
2019-05-22T01:40:42.942Z,100829.05
2019-05-22T01:43:14.932Z,100835.64
2019-05-22T01:45:53.138Z,100832.28
2019-05-22T01:48:27.432Z,100832.52
2019-05-22T01:50:57.558Z,100835.52
2019-05-22T01:53:30.213Z,100831.59
2019-05-22T01:56:03.441Z,100837.36
2019-05-22T01:58:34.514Z,100835.98
2019-05-22T02:01:05.602Z,100838.98
2019-05-22T02:03:36.643Z,100837.03
2019-05-22T02:06:07.298Z,100834.27
2019-05-22T02:08:45.419Z,100843.03
2019-05-22T02:11:18.303Z,100842.67
2019-05-22T02:13:55.093Z,100843.27
2019-05-22T02:16:26.470Z,100835.88
2019-05-22T02:18:56.638Z,100833.34
2019-05-22T02:21:26.920Z,100835.65
2019-05-22T02:23:56.552Z,100837.83
2019-05-22T02:26:27.551Z,100837.95
2019-05-22T02:28:58.841Z,100834.72
2019-05-22T02:31:30.178Z,100841.17
2019-05-22T02:34:02.957Z,100847.86
2019-05-22T02:36:34.853Z,100847.40
2019-05-22T02:39:09.087Z,100852.47
2019-05-22T02:41:43.462Z,100853.38
2019-05-22T02:44:14.099Z,100854.27
2019-05-22T02:46:43.972Z,100858.88
2019-05-22T02:49:14.829Z,100860.94
2019-05-22T02:51:44.659Z,100850.33
2019-05-22T02:54:14.690Z,100847.09
2019-05-22T02:56:44.581Z,100858.84
2019-05-22T02:59:15.296Z,100862.29
2019-05-22T03:01:45.773Z,100866.33
2019-05-22T03:04:16.951Z,100870.33
2019-05-22T03:06:46.768Z,100872.08
2019-05-22T03:09:22.467Z,100871.34
2019-05-22T03:12:22.531Z,100870.31
2019-05-22T03:14:52.488Z,100870.41
2019-05-22T03:17:30.367Z,100879.61
2019-05-22T03:20:04.076Z,100881.67
2019-05-22T03:22:40.962Z,100883.17
2019-05-22T03:25:13.755Z,100875.09
2019-05-22T03:27:50.408Z,100878.30
2019-05-22T03:30:34.025Z,100888.66
2019-05-22T03:33:06.463Z,100890.68
2019-05-22T03:35:49.697Z,100886.73
2019-05-22T03:38:40.455Z,100892.70
2019-05-22T03:41:12.144Z,100900.52
2019-05-22T03:43:46.235Z,100901.99
2019-05-22T03:46:38.305Z,100894.61
2019-05-22T03:49:28.144Z,100897.38
2019-05-22T03:51:42.959Z,100897.61
2019-05-22T03:54:12.806Z,100894.02
2019-05-22T03:56:42.578Z,100895.08
2019-05-22T03:59:12.442Z,100907.20
2019-05-22T04:01:43.333Z,100898.91
2019-05-22T04:04:16.471Z,100914.10
2019-05-22T04:06:48.048Z,100911.25
2019-05-22T04:09:23.372Z,100910.90
2019-05-22T04:11:55.102Z,100917.81
2019-05-22T04:14:29.321Z,100917.73
2019-05-22T04:16:58.950Z,100923.14
2019-05-22T04:19:45.151Z,100923.05
2019-05-22T04:22:00.108Z,100923.61
2019-05-22T04:24:31.175Z,100929.37
2019-05-22T04:27:03.344Z,100927.75
2019-05-22T04:29:32.964Z,100928.25
2019-05-22T04:32:07.195Z,100936.78
2019-05-22T04:34:37.096Z,100940.11
2019-05-22T04:37:08.815Z,100939.55
2019-05-22T04:39:40.893Z,100944.16
2019-05-22T04:42:12.508Z,100945.78
2019-05-22T04:45:09.139Z,100948.78
2019-05-22T04:47:40.065Z,100948.43
2019-05-22T04:50:10.869Z,100938.20
2019-05-22T04:52:41.882Z,100944.75
2019-05-22T04:55:11.523Z,100935.67
2019-05-22T04:57:41.643Z,100946.96
2019-05-22T05:00:12.314Z,100946.13
2019-05-22T05:02:42.258Z,100944.98
2019-05-22T05:05:12.576Z,100951.66
2019-05-22T05:07:43.757Z,100950.88
2019-05-22T05:10:13.533Z,100948.11
2019-05-22T05:12:43.177Z,100953.88
2019-05-22T05:15:13.283Z,100956.88
2019-05-22T05:17:42.828Z,100960.19
2019-05-22T05:20:22.071Z,100956.63
2019-05-22T05:22:47.506Z,100962.40
2019-05-22T05:25:18.970Z,100965.16
2019-05-22T05:27:48.945Z,100963.43
2019-05-22T05:30:22.693Z,100965.40
2019-05-22T05:32:52.827Z,100970.02
2019-05-22T05:35:23.635Z,100974.40
2019-05-22T05:37:53.266Z,100975.78
2019-05-22T05:40:31.391Z,100977.16
2019-05-22T05:43:12.511Z,100981.55
2019-05-22T05:45:44.417Z,100983.25
2019-05-22T05:48:17.533Z,100979.93
2019-05-22T05:51:09.630Z,100979.45
2019-05-22T05:54:03.139Z,100987.63
2019-05-22T05:56:33.796Z,100994.55
2019-05-22T05:59:05.592Z,100989.37
2019-05-22T06:01:37.216Z,100992.13
2019-05-22T06:04:07.024Z,100999.28
2019-05-22T06:06:44.062Z,101003.66
2019-05-22T06:09:21.983Z,101002.52
2019-05-22T06:11:58.173Z,101004.13
2019-05-22T06:14:31.073Z,101003.23
2019-05-22T06:17:23.612Z,101003.46
2019-05-22T06:20:00.430Z,101014.17
2019-05-22T06:22:30.241Z,101014.64
2019-05-22T06:25:04.388Z,101011.79
2019-05-22T06:27:35.982Z,101012.03
2019-05-22T06:30:11.376Z,101014.12
2019-05-22T06:33:12.716Z,101019.65
2019-05-22T06:35:42.653Z,101024.27
2019-05-22T06:38:38.510Z,101019.80
2019-05-22T06:41:08.678Z,101013.13
2019-05-22T06:43:45.705Z,101017.16
2019-05-22T06:46:17.086Z,101024.89
2019-05-22T06:48:46.893Z,101020.74
2019-05-22T06:51:19.390Z,101026.83
2019-05-22T06:53:47.741Z,101028.22
2019-05-22T06:56:17.318Z,101025.12
2019-05-22T06:58:47.130Z,101030.30
2019-05-22T07:01:16.694Z,101026.39
2019-05-22T07:03:46.294Z,101036.55
2019-05-22T07:06:16.360Z,101035.63
2019-05-22T07:08:45.973Z,101037.72
2019-05-22T07:11:15.794Z,101043.25
2019-05-22T07:13:46.201Z,101041.31
2019-05-22T07:16:16.308Z,101036.34
2019-05-22T07:18:46.192Z,101044.55
2019-05-22T07:21:15.741Z,101046.17
2019-05-22T07:23:45.271Z,101043.64
2019-05-22T07:26:15.490Z,101043.52
2019-05-22T07:28:45.014Z,101050.95
2019-05-22T07:31:14.547Z,101047.27
2019-05-22T07:33:44.736Z,101045.88
2019-05-22T07:36:17.078Z,101053.27
2019-05-22T07:38:47.171Z,101053.73
2019-05-22T07:41:17.210Z,101055.59
2019-05-22T07:43:46.750Z,101061.59
2019-05-22T07:46:16.416Z,101053.77
2019-05-22T07:48:46.815Z,101062.42
2019-05-22T07:51:18.014Z,101065.80
2019-05-22T07:53:47.744Z,101061.68
2019-05-22T07:56:17.801Z,101060.08
2019-05-22T07:58:47.577Z,101062.88
2019-05-22T08:01:18.151Z,101054.83
2019-05-22T08:03:49.477Z,101063.38
2019-05-22T08:06:19.460Z,101059.78
2019-05-22T08:08:49.298Z,101059.11
2019-05-22T08:11:18.967Z,101053.36
2019-05-22T08:13:48.701Z,101055.59
2019-05-22T08:16:19.486Z,101051.45
2019-05-22T08:18:49.249Z,101055.05
2019-05-22T08:21:23.249Z,101062.55
2019-05-22T08:23:52.852Z,101063.83
2019-05-22T08:26:24.816Z,101064.66
2019-05-22T08:28:54.429Z,101069.60
2019-05-22T08:31:25.620Z,101069.37
2019-05-22T08:33:55.329Z,101062.20
2019-05-22T08:36:24.928Z,101067.77
2019-05-22T08:38:55.545Z,101069.97
2019-05-22T08:41:29.731Z,101080.95
2019-05-22T08:44:15.394Z,101074.23
2019-05-22T08:46:32.877Z,101069.36
2019-05-22T08:49:03.194Z,101073.73
2019-05-22T08:51:32.727Z,101067.94
2019-05-22T08:54:05.929Z,101071.74
2019-05-22T08:57:02.637Z,101069.97
2019-05-22T08:59:32.290Z,101069.49
2019-05-22T09:02:02.605Z,101070.00
2019-05-22T09:04:32.155Z,101077.29
2019-05-22T09:07:02.200Z,101077.63
2019-05-22T09:09:31.824Z,101078.17
2019-05-22T09:12:01.444Z,101075.95
2019-05-22T09:14:31.243Z,101081.25
2019-05-22T09:17:00.917Z,101080.66
2019-05-22T09:19:30.425Z,101080.05
2019-05-22T09:22:00.812Z,101079.11
2019-05-22T09:24:34.293Z,101072.77
2019-05-22T09:27:04.070Z,101075.99
2019-05-22T09:29:33.686Z,101075.47
2019-05-22T09:32:03.980Z,101075.50
2019-05-22T09:34:34.474Z,101079.73
2019-05-22T09:37:04.863Z,101087.31
2019-05-22T09:39:34.603Z,101081.70
2019-05-22T09:42:04.213Z,101081.53
2019-05-22T09:44:33.783Z,101084.14
2019-05-22T09:47:04.001Z,101081.53
2019-05-22T09:49:34.441Z,101082.87
2019-05-22T09:52:05.024Z,101087.66
2019-05-22T09:54:35.039Z,101089.88
2019-05-22T09:57:05.241Z,101096.00
2019-05-22T09:59:34.987Z,101094.84
2019-05-22T10:02:06.405Z,101097.38
2019-05-22T10:04:36.785Z,101108.23
2019-05-22T10:07:06.355Z,101090.95
2019-05-22T10:09:36.185Z,101087.95
2019-05-22T10:12:05.791Z,101088.39
2019-05-22T10:14:35.699Z,101087.51
2019-05-22T10:17:06.189Z,101081.97
2019-05-22T10:19:36.087Z,101091.47
2019-05-22T10:22:07.864Z,101093.06
2019-05-22T10:24:37.858Z,101089.12
2019-05-22T10:27:09.091Z,101081.80
2019-05-22T10:29:38.662Z,101087.03
2019-05-22T10:32:08.637Z,101098.84
2019-05-22T10:34:38.371Z,101090.40
2019-05-22T10:37:09.330Z,101092.83
2019-05-22T10:39:40.654Z,101090.27
2019-05-22T10:42:10.225Z,101085.56
2019-05-22T10:44:39.879Z,101092.45
2019-05-22T10:47:09.925Z,101085.99
2019-05-22T10:49:39.600Z,101088.17
2019-05-22T10:52:09.423Z,101087.00
2019-05-22T10:54:39.083Z,101078.42
2019-05-22T10:57:09.187Z,101067.48
2019-05-22T10:59:38.773Z,101075.62
2019-05-22T11:02:09.040Z,101072.36
2019-05-22T11:04:38.960Z,101074.13
2019-05-22T11:07:10.307Z,101071.67
2019-05-22T11:09:40.400Z,101063.24
2019-05-22T11:12:10.361Z,101069.41
2019-05-22T11:14:40.354Z,101070.95
2019-05-22T11:17:10.858Z,101075.35
2019-05-22T11:19:40.582Z,101073.70
2019-05-22T11:22:10.919Z,101073.95
2019-05-22T11:24:40.563Z,101074.45
2019-05-22T11:27:10.340Z,101068.33
2019-05-22T11:29:40.369Z,101065.96
2019-05-22T11:32:11.324Z,101067.24
2019-05-22T11:34:40.877Z,101061.55
2019-05-22T11:37:10.619Z,101060.03
2019-05-22T11:39:44.728Z,101055.72
2019-05-22T11:42:12.889Z,101052.80
2019-05-22T11:44:42.678Z,101058.45
2019-05-22T11:47:15.205Z,101060.34
2019-05-22T11:49:45.008Z,101050.80
2019-05-22T11:52:15.531Z,101048.27
2019-05-22T11:54:45.577Z,101047.30
2019-05-22T11:57:15.477Z,101056.34
2019-05-22T11:59:45.311Z,101053.16
2019-05-22T12:02:15.328Z,101054.19
2019-05-22T12:04:48.440Z,101054.00
2019-05-22T12:07:16.413Z,101061.59
2019-05-22T12:09:46.240Z,101053.42
2019-05-22T12:12:17.229Z,101053.64
2019-05-22T12:14:46.873Z,101058.25
2019-05-22T12:17:16.690Z,101050.50
2019-05-22T12:19:47.021Z,101054.75
2019-05-22T12:22:19.896Z,101049.81
2019-05-22T12:24:48.742Z,101051.29
2019-05-22T12:27:18.471Z,101055.34
2019-05-22T12:29:48.106Z,101059.55
2019-05-22T12:32:17.691Z,101057.94
2019-05-22T12:34:49.402Z,101049.12
2019-05-22T12:37:19.076Z,101054.27
2019-05-22T12:39:49.115Z,101056.59
2019-05-22T12:42:20.018Z,101050.77
2019-05-22T12:44:50.429Z,101049.16
2019-05-22T12:47:21.208Z,101051.61
2019-05-22T12:49:52.231Z,101042.67
2019-05-22T12:52:22.207Z,101047.94
2019-05-22T12:54:53.045Z,101046.45
2019-05-22T12:57:22.946Z,101046.17
2019-05-22T12:59:53.559Z,101043.48
2019-05-22T13:02:25.065Z,101042.22
2019-05-22T13:04:54.835Z,101035.78
2019-05-22T13:07:24.793Z,101028.91
2019-05-22T13:09:54.651Z,101028.81
2019-05-22T13:12:24.434Z,101031.86
2019-05-22T13:15:08.468Z,101028.48
2019-05-22T13:17:26.344Z,101026.72
2019-05-22T13:19:56.819Z,101021.36
2019-05-22T13:22:28.340Z,101015.24
2019-05-22T13:24:58.860Z,101018.31
2019-05-22T13:27:29.190Z,101022.38
2019-05-22T13:30:01.452Z,101020.19
2019-05-22T13:32:31.496Z,101016.39
2019-05-22T13:35:02.391Z,101017.41
2019-05-22T13:37:32.003Z,101025.41
2019-05-22T13:40:01.766Z,101019.02
2019-05-22T13:42:31.880Z,101010.81
2019-05-22T13:45:01.793Z,101020.03
2019-05-22T13:47:31.693Z,101010.83
2019-05-22T13:50:02.224Z,101005.24
2019-05-22T13:52:32.355Z,101009.50
2019-05-22T13:55:01.906Z,101008.91
2019-05-22T13:57:31.593Z,101006.51
2019-05-22T14:00:01.070Z,101003.31
2019-05-22T14:02:31.017Z,101001.31
2019-05-22T14:05:00.910Z,100996.96
2019-05-22T14:07:30.894Z,100999.78
2019-05-22T14:10:00.524Z,101001.00
2019-05-22T14:12:30.178Z,100999.39
2019-05-22T14:14:59.759Z,100981.97
2019-05-22T14:17:29.301Z,100980.36
2019-05-22T14:19:59.026Z,100986.97
2019-05-22T14:22:28.580Z,100987.78
2019-05-22T14:24:58.495Z,100981.95
2019-05-22T14:27:28.240Z,100982.92
2019-05-22T14:29:57.817Z,100985.92
2019-05-22T14:32:29.737Z,100986.48
2019-05-22T14:34:59.101Z,100983.26
2019-05-22T14:37:28.927Z,100991.04
2019-05-22T14:39:59.000Z,100992.02
2019-05-22T14:42:28.922Z,100987.84
2019-05-22T14:44:59.174Z,100983.19
2019-05-22T14:47:28.947Z,100985.97
2019-05-22T14:49:58.609Z,100984.17
2019-05-22T14:52:28.541Z,100983.97
2019-05-22T14:54:58.116Z,100980.97
2019-05-22T14:57:27.737Z,100982.41
2019-05-22T14:59:57.614Z,100978.81
2019-05-22T15:02:27.937Z,100974.17
2019-05-22T15:04:58.288Z,100969.16
2019-05-22T15:07:27.932Z,100968.55
2019-05-22T15:09:57.532Z,100978.39
2019-05-22T15:12:27.751Z,100963.52
2019-05-22T15:14:57.286Z,100965.73
2019-05-22T15:17:32.637Z,100961.16
2019-05-22T15:19:58.976Z,100966.78
2019-05-22T15:22:28.570Z,100964.78
2019-05-22T15:24:58.662Z,100963.58
2019-05-22T15:27:28.667Z,100960.38
2019-05-22T15:29:58.706Z,100958.73
2019-05-22T15:32:28.331Z,100954.72
2019-05-22T15:34:58.076Z,100951.28
2019-05-22T15:37:27.823Z,100959.52
2019-05-22T15:39:58.380Z,100953.66
2019-05-22T15:42:44.982Z,100951.23
2019-05-22T15:45:21.853Z,100950.81
2019-05-22T15:47:56.793Z,100945.97
2019-05-22T15:50:33.121Z,100941.36
2019-05-22T15:53:12.716Z,100940.19
2019-05-22T15:55:42.732Z,100938.58
2019-05-22T15:58:13.734Z,100941.20
2019-05-22T16:00:47.543Z,100945.84
2019-05-22T16:03:23.188Z,100943.44
2019-05-22T16:05:54.590Z,100937.03
2019-05-22T16:08:24.419Z,100940.23
2019-05-22T16:10:59.442Z,100943.00
2019-05-22T16:13:26.988Z,100931.36
2019-05-22T16:15:59.984Z,100942.16
2019-05-22T16:18:32.220Z,100927.03
2019-05-22T16:21:04.903Z,100939.23
2019-05-22T16:23:37.510Z,100925.81
2019-05-22T16:26:11.830Z,100932.37
2019-05-22T16:28:43.884Z,100929.94
2019-05-22T16:31:13.694Z,100933.50
2019-05-22T16:33:44.549Z,100934.86
2019-05-22T16:36:14.976Z,100941.59
2019-05-22T16:38:46.728Z,100935.83
2019-05-22T16:41:17.098Z,100934.38
2019-05-22T16:43:50.007Z,100935.06
2019-05-22T16:46:21.784Z,100938.35
2019-05-22T16:48:52.762Z,100932.86
2019-05-22T16:51:23.562Z,100934.84
2019-05-22T16:54:01.962Z,100929.20
2019-05-22T16:56:31.969Z,100930.80
2019-05-22T16:59:02.847Z,100934.25
2019-05-22T17:01:34.073Z,100928.89
2019-05-22T17:04:04.566Z,100924.77
2019-05-22T17:06:35.803Z,100926.85
2019-05-22T17:09:09.603Z,100919.67
2019-05-22T17:11:40.438Z,100922.32
2019-05-22T17:14:13.221Z,100922.00
2019-05-22T17:16:43.321Z,100911.19
2019-05-22T17:19:26.297Z,100923.33
2019-05-22T17:21:45.778Z,100923.89
2019-05-22T17:24:17.168Z,100923.85
2019-05-22T17:26:48.039Z,100925.16
2019-05-22T17:29:17.721Z,100920.27
2019-05-22T17:31:47.755Z,100925.96
2019-05-22T17:34:33.165Z,100925.98
2019-05-22T17:37:07.581Z,100926.20
2019-05-22T17:39:41.046Z,100929.45
2019-05-22T17:42:16.435Z,100925.02
2019-05-22T17:44:47.808Z,100932.03
2019-05-22T17:47:18.069Z,100931.44
2019-05-22T17:49:47.969Z,100928.37
2019-05-22T17:52:20.078Z,100920.82
2019-05-22T17:54:52.178Z,100923.61
2019-05-22T17:57:22.606Z,100919.04
2019-05-22T17:59:52.675Z,100920.58
2019-05-22T18:02:24.470Z,100921.45
2019-05-22T18:04:55.278Z,100929.96
2019-05-22T18:07:25.868Z,100930.64
2019-05-22T18:09:55.953Z,100924.44
2019-05-22T18:12:27.154Z,100920.26
2019-05-22T18:14:56.822Z,100925.70
2019-05-22T18:17:26.646Z,100918.55
2019-05-22T18:19:56.263Z,100921.80
2019-05-22T18:22:26.871Z,100921.50
2019-05-22T18:24:56.619Z,100920.38
2019-05-22T18:27:26.625Z,100924.80
2019-05-22T18:29:56.222Z,100922.00
2019-05-22T18:32:25.976Z,100932.44
2019-05-22T18:34:55.721Z,100923.17
2019-05-22T18:37:25.248Z,100927.91
2019-05-22T18:39:54.766Z,100928.43
2019-05-22T18:42:24.588Z,100930.30
2019-05-22T18:44:54.243Z,100934.62
2019-05-22T18:47:24.157Z,100929.11
2019-05-22T18:49:54.116Z,100934.97
2019-05-22T18:52:38.221Z,100936.39
2019-05-22T18:54:55.040Z,100934.42
2019-05-22T18:57:25.074Z,100931.25
2019-05-22T19:00:01.237Z,100942.66
2019-05-22T19:02:25.805Z,100943.62
2019-05-22T19:04:55.435Z,100949.77
2019-05-22T19:07:25.361Z,100952.13
2019-05-22T19:09:54.925Z,100945.91
2019-05-22T19:12:24.773Z,100950.42
2019-05-22T19:14:54.552Z,100950.73
2019-05-22T19:17:25.066Z,100950.84
2019-05-22T19:19:55.124Z,100944.16
2019-05-22T19:22:24.710Z,100951.44
2019-05-22T19:24:54.340Z,100948.94
2019-05-22T19:27:23.880Z,100944.61
2019-05-22T19:29:53.541Z,100950.45
2019-05-22T19:32:23.122Z,100955.01
2019-05-22T19:34:52.699Z,100951.20
2019-05-22T19:37:22.352Z,100961.00
2019-05-22T19:39:53.621Z,100960.44
2019-05-22T19:42:24.127Z,100971.25
2019-05-22T19:44:53.797Z,100963.95
2019-05-22T19:47:24.981Z,100963.84
2019-05-22T19:49:54.534Z,100969.73
2019-05-22T19:52:40.370Z,100980.80
2019-05-22T19:54:55.945Z,100981.34
2019-05-22T19:57:25.477Z,100984.07
2019-05-22T19:59:55.006Z,100987.83
2019-05-22T20:02:24.779Z,100987.39
2019-05-22T20:04:54.532Z,100987.20
2019-05-22T20:07:24.490Z,100990.96
2019-05-22T20:09:54.728Z,100989.95
2019-05-22T20:12:25.423Z,100994.97
2019-05-22T20:14:55.242Z,100996.62
2019-05-22T20:17:26.362Z,100997.10
2019-05-22T20:19:56.260Z,100995.00
2019-05-22T20:22:26.610Z,100993.98
2019-05-22T20:24:56.288Z,100996.64
2019-05-22T20:27:26.134Z,100998.28
2019-05-22T20:29:55.730Z,100994.75
2019-05-22T20:32:25.422Z,100994.40
2019-05-22T20:34:55.826Z,100994.09
2019-05-22T20:37:25.468Z,100988.64
2019-05-22T20:39:55.016Z,100993.37
2019-05-22T20:42:24.667Z,100993.37
2019-05-22T20:44:54.280Z,100998.13
2019-05-22T20:47:25.397Z,101002.30
2019-05-22T20:49:55.353Z,100995.92
2019-05-22T20:52:25.373Z,100999.75
2019-05-22T20:54:56.162Z,100997.20
2019-05-22T20:57:27.776Z,100995.48
2019-05-22T20:59:59.155Z,100998.81
2019-05-22T21:02:29.915Z,101000.43
2019-05-22T21:04:59.534Z,100996.50
2019-05-22T21:07:39.934Z,101000.89
2019-05-22T21:10:09.857Z,100993.02
2019-05-22T21:12:40.988Z,101001.56
2019-05-22T21:15:11.462Z,101005.73
2019-05-22T21:17:41.703Z,101000.41
2019-05-22T21:20:13.765Z,101008.73
2019-05-22T21:22:43.714Z,101006.78
2019-05-22T21:25:13.554Z,101009.56
2019-05-22T21:27:43.408Z,101007.34
2019-05-22T21:30:14.993Z,101007.58
2019-05-22T21:32:45.683Z,101009.89
2019-05-22T21:35:17.210Z,101010.83
2019-05-22T21:37:46.800Z,101008.19
2019-05-22T21:40:18.354Z,101008.08
2019-05-22T21:42:48.403Z,101011.55
2019-05-22T21:45:18.467Z,101004.27
2019-05-22T21:47:48.271Z,101005.34
2019-05-22T21:50:19.546Z,101005.81
2019-05-22T21:52:49.338Z,101001.30
2019-05-22T21:55:19.739Z,101002.14
2019-05-22T21:57:49.694Z,100996.77
2019-05-22T22:01:00.446Z,100999.80
2019-05-22T22:03:38.021Z,101003.41
2019-05-22T22:06:08.565Z,101001.91
2019-05-22T22:08:38.161Z,101003.86
2019-05-22T22:11:08.977Z,101007.23
2019-05-22T22:13:39.196Z,101010.01
2019-05-22T22:16:10.126Z,101011.73
2019-05-22T22:18:41.254Z,101009.88
2019-05-22T22:21:11.377Z,101014.04
2019-05-22T22:23:44.413Z,101018.76
2019-05-22T22:26:25.478Z,101015.52
2019-05-22T22:28:44.804Z,101023.13
2019-05-22T22:31:16.573Z,101015.95
2019-05-22T22:33:51.173Z,101018.48
2019-05-22T22:36:21.887Z,101024.02
2019-05-22T22:38:51.925Z,101014.28
2019-05-22T22:41:22.716Z,101021.16
2019-05-22T22:43:52.927Z,101026.67
2019-05-22T22:46:30.237Z,101028.86
2019-05-22T22:49:01.753Z,101021.92
2019-05-22T22:51:32.006Z,101026.84
2019-05-22T22:54:04.867Z,101029.36
2019-05-22T22:56:35.322Z,101030.95
2019-05-22T22:59:08.078Z,101033.69
2019-05-22T23:01:41.509Z,101029.75
2019-05-22T23:04:12.347Z,101029.92
2019-05-22T23:06:42.917Z,101037.05
2019-05-22T23:09:12.465Z,101027.81
2019-05-22T23:11:43.480Z,101028.02
2019-05-22T23:14:13.035Z,101031.45
2019-05-22T23:16:42.933Z,101021.98
2019-05-22T23:19:18.170Z,101021.03
2019-05-22T23:21:47.734Z,101021.70
2019-05-22T23:24:19.918Z,101019.38
2019-05-22T23:26:49.800Z,101026.38
2019-05-22T23:29:19.844Z,101024.63
2019-05-22T23:31:49.819Z,101023.45
2019-05-22T23:34:19.793Z,101029.41
2019-05-22T23:36:49.702Z,101018.79
2019-05-22T23:39:21.641Z,101024.72
2019-05-22T23:41:56.240Z,101023.77
2019-05-22T23:44:25.264Z,101023.05
2019-05-22T23:46:55.877Z,101027.08
2019-05-22T23:49:26.206Z,101025.03
2019-05-22T23:51:55.970Z,101033.03
2019-05-22T23:54:25.995Z,101034.13
2019-05-22T23:56:55.863Z,101031.20
2019-05-22T23:59:25.438Z,101039.91
